VOZ1493 YBBN-YBHM
Flight info
| Callsign | VOZ1493 |
|---|---|
| Flight time | 1h 21m |
| Altitude | 38000 |
| Route | BN Q67 OVRON |
| Aircraft | B737/M-SDE2E3FGHIRWXY/LB1 |
Departure
| Time | 2026-04-20 18:35 |
|---|---|
| Airport | Brisbane International Airport (YBBN) |
Arrival
| Time | 2026-04-20 19:57 |
|---|---|
| Airport | Hamilton Island Airport (YBHM) |
| Time | Latitude | Longitude | Altitude | Speed | Heading |
|---|---|---|---|---|---|
| 2026-04-20 17:57 | -27.38807 | 153.12003 | 20 ft | 0 kts | 279° |
| 2026-04-20 18:21 | -27.38810 | 153.12024 | 22 ft | 4 kts | 279° |
| 2026-04-20 18:21 | -27.38813 | 153.12047 | 24 ft | 4 kts | 267° |
| 2026-04-20 18:21 | -27.38814 | 153.12069 | 23 ft | 3 kts | 290° |
| 2026-04-20 18:22 | -27.38827 | 153.12091 | 24 ft | 3 kts | 332° |
| 2026-04-20 18:22 | -27.38849 | 153.12101 | 21 ft | 4 kts | 12° |
| 2026-04-20 18:22 | -27.38867 | 153.12088 | 22 ft | 4 kts | 43° |
| 2026-04-20 18:22 | -27.38873 | 153.12082 | 22 ft | 0 kts | 43° |
| 2026-04-20 18:25 | -27.38869 | 153.12091 | 22 ft | 3 kts | 64° |
| 2026-04-20 18:26 | -27.38867 | 153.12129 | 20 ft | 7 kts | 98° |
| 2026-04-20 18:26 | -27.38889 | 153.12188 | 20 ft | 10 kts | 116° |
| 2026-04-20 18:26 | -27.38867 | 153.12264 | 20 ft | 13 kts | 36° |
| 2026-04-20 18:26 | -27.38786 | 153.12312 | 21 ft | 14 kts | 27° |
| 2026-04-20 18:27 | -27.38685 | 153.12369 | 21 ft | 18 kts | 27° |
| 2026-04-20 18:27 | -27.38560 | 153.12440 | 20 ft | 22 kts | 27° |
| 2026-04-20 18:27 | -27.38418 | 153.12521 | 20 ft | 23 kts | 27° |
| 2026-04-20 18:27 | -27.38278 | 153.12601 | 20 ft | 21 kts | 27° |
| 2026-04-20 18:28 | -27.38152 | 153.12673 | 21 ft | 19 kts | 27° |
| 2026-04-20 18:28 | -27.38040 | 153.12737 | 22 ft | 17 kts | 27° |
| 2026-04-20 18:28 | -27.37957 | 153.12760 | 20 ft | 12 kts | 335° |
| 2026-04-20 18:28 | -27.37910 | 153.12680 | 21 ft | 13 kts | 297° |
| 2026-04-20 18:29 | -27.37863 | 153.12577 | 20 ft | 16 kts | 297° |
| 2026-04-20 18:29 | -27.37807 | 153.12453 | 20 ft | 19 kts | 297° |
| 2026-04-20 18:29 | -27.37742 | 153.12311 | 20 ft | 22 kts | 297° |
| 2026-04-20 18:29 | -27.37670 | 153.12152 | 20 ft | 24 kts | 297° |
| 2026-04-20 18:30 | -27.37595 | 153.11988 | 20 ft | 23 kts | 297° |
| 2026-04-20 18:30 | -27.37527 | 153.11837 | 20 ft | 20 kts | 297° |
| 2026-04-20 18:30 | -27.37464 | 153.11700 | 20 ft | 19 kts | 297° |
| 2026-04-20 18:30 | -27.37413 | 153.11587 | 20 ft | 12 kts | 297° |
| 2026-04-20 18:31 | -27.37345 | 153.11557 | 20 ft | 12 kts | 24° |
| 2026-04-20 18:31 | -27.37266 | 153.11602 | 20 ft | 16 kts | 27° |
| 2026-04-20 18:31 | -27.37144 | 153.11672 | 20 ft | 23 kts | 27° |
| 2026-04-20 18:31 | -27.36985 | 153.11763 | 21 ft | 28 kts | 27° |
| 2026-04-20 18:32 | -27.36801 | 153.11868 | 21 ft | 31 kts | 27° |
| 2026-04-20 18:32 | -27.36607 | 153.11979 | 20 ft | 31 kts | 27° |
| 2026-04-20 18:32 | -27.36421 | 153.12085 | 21 ft | 29 kts | 27° |
| 2026-04-20 18:32 | -27.36248 | 153.12184 | 20 ft | 27 kts | 27° |
| 2026-04-20 18:33 | -27.36092 | 153.12273 | 20 ft | 23 kts | 27° |
| 2026-04-20 18:33 | -27.35965 | 153.12346 | 21 ft | 18 kts | 27° |
| 2026-04-20 18:33 | -27.35876 | 153.12386 | 20 ft | 11 kts | 354° |
| 2026-04-20 18:33 | -27.35804 | 153.12340 | 20 ft | 13 kts | 327° |
| 2026-04-20 18:34 | -27.35736 | 153.12287 | 22 ft | 12 kts | 324° |
| 2026-04-20 18:34 | -27.35677 | 153.12222 | 20 ft | 9 kts | 302° |
| 2026-04-20 18:34 | -27.35670 | 153.12192 | 22 ft | 2 kts | 238° |
| 2026-04-20 18:34 | -27.35699 | 153.12174 | 21 ft | 14 kts | 209° |
| 2026-04-20 18:35 | -27.36011 | 153.11995 | 23 ft | 85 kts | 207° |
| 2026-04-20 18:35 | -27.36717 | 153.11590 | 22 ft | 146 kts | 207° |
| 2026-04-20 18:35 | -27.37781 | 153.10991 | 384 ft | 183 kts | 206° |
| 2026-04-20 18:35 | -27.38940 | 153.10337 | 1316 ft | 188 kts | 204° |
| 2026-04-20 18:36 | -27.40115 | 153.09672 | 2257 ft | 192 kts | 202° |
| 2026-04-20 18:36 | -27.41383 | 153.08953 | 2519 ft | 216 kts | 202° |
| 2026-04-20 18:36 | -27.42780 | 153.08167 | 2985 ft | 233 kts | 202° |
| 2026-04-20 18:36 | -27.44256 | 153.07331 | 3685 ft | 241 kts | 203° |
| 2026-04-20 18:37 | -27.45750 | 153.06454 | 4518 ft | 243 kts | 204° |
| 2026-04-20 18:37 | -27.47260 | 153.05563 | 5285 ft | 249 kts | 208° |
| 2026-04-20 18:37 | -27.48497 | 153.04181 | 6107 ft | 256 kts | 238° |
| 2026-04-20 18:37 | -27.49051 | 153.02272 | 7019 ft | 261 kts | 262° |
| 2026-04-20 18:38 | -27.48952 | 153.00206 | 7874 ft | 268 kts | 275° |
| 2026-04-20 18:38 | -27.48638 | 152.98116 | 8740 ft | 273 kts | 276° |
| 2026-04-20 18:38 | -27.48302 | 152.96000 | 9626 ft | 276 kts | 276° |
| 2026-04-20 18:38 | -27.47953 | 152.93856 | 10484 ft | 282 kts | 281° |
| 2026-04-20 18:39 | -27.47043 | 152.91872 | 11306 ft | 293 kts | 308° |
| 2026-04-20 18:39 | -27.45418 | 152.90455 | 12160 ft | 302 kts | 333° |
| 2026-04-20 18:39 | -27.43370 | 152.89870 | 12968 ft | 310 kts | 358° |
| 2026-04-20 18:39 | -27.41250 | 152.90361 | 13765 ft | 316 kts | 26° |
| 2026-04-20 18:40 | -27.39370 | 152.91759 | 14086 ft | 338 kts | 46° |
| 2026-04-20 18:40 | -27.37966 | 152.93967 | 14282 ft | 358 kts | 66° |
| 2026-04-20 18:40 | -27.36838 | 152.96566 | 14523 ft | 380 kts | 66° |
| 2026-04-20 18:40 | -27.35566 | 152.99227 | 15115 ft | 390 kts | 62° |
| 2026-04-20 18:41 | -27.34128 | 153.01837 | 15908 ft | 395 kts | 59° |
| 2026-04-20 18:41 | -27.33106 | 153.03536 | 16445 ft | 398 kts | 58° |
| 2026-04-20 18:41 | -27.31502 | 153.06098 | 17195 ft | 403 kts | 57° |
| 2026-04-20 18:41 | -27.29862 | 153.08681 | 17922 ft | 409 kts | 57° |
| 2026-04-20 18:42 | -27.27960 | 153.11092 | 18607 ft | 418 kts | 43° |
| 2026-04-20 18:42 | -27.25710 | 153.13188 | 19261 ft | 423 kts | 41° |
| 2026-04-20 18:42 | -27.23431 | 153.15301 | 19878 ft | 427 kts | 41° |
| 2026-04-20 18:42 | -27.21042 | 153.17331 | 20462 ft | 435 kts | 30° |
| 2026-04-20 18:43 | -27.18213 | 153.18571 | 21045 ft | 440 kts | 16° |
| 2026-04-20 18:43 | -27.15262 | 153.19544 | 21678 ft | 444 kts | 16° |
| 2026-04-20 18:43 | -27.12287 | 153.20530 | 22245 ft | 449 kts | 16° |
| 2026-04-20 18:43 | -27.09276 | 153.21562 | 22809 ft | 454 kts | 17° |
| 2026-04-20 18:44 | -27.06251 | 153.22624 | 23394 ft | 458 kts | 17° |
| 2026-04-20 18:44 | -27.03190 | 153.23686 | 23923 ft | 462 kts | 13° |
| 2026-04-20 18:44 | -27.00003 | 153.24155 | 24353 ft | 463 kts | 359° |
| 2026-04-20 18:44 | -26.96772 | 153.24195 | 24860 ft | 466 kts | 358° |
| 2026-04-20 18:45 | -26.93515 | 153.24190 | 25314 ft | 470 kts | 357° |
| 2026-04-20 18:45 | -26.90229 | 153.24195 | 25747 ft | 474 kts | 358° |
| 2026-04-20 18:45 | -26.86920 | 153.24228 | 26180 ft | 478 kts | 358° |
| 2026-04-20 18:45 | -26.83578 | 153.24286 | 26599 ft | 482 kts | 358° |
| 2026-04-20 18:46 | -26.80219 | 153.24358 | 27061 ft | 484 kts | 359° |
| 2026-04-20 18:46 | -26.76884 | 153.24433 | 27480 ft | 487 kts | 359° |
| 2026-04-20 18:46 | -26.73482 | 153.24508 | 27867 ft | 491 kts | 359° |
| 2026-04-20 18:46 | -26.70051 | 153.24559 | 28243 ft | 494 kts | 355° |
| 2026-04-20 18:47 | -26.66671 | 153.23998 | 28579 ft | 491 kts | 340° |
| 2026-04-20 18:47 | -26.63368 | 153.22848 | 29027 ft | 491 kts | 338° |
| 2026-04-20 18:47 | -26.60116 | 153.21649 | 29400 ft | 494 kts | 338° |
| 2026-04-20 18:47 | -26.56879 | 153.20456 | 29731 ft | 498 kts | 338° |
| 2026-04-20 18:48 | -26.53573 | 153.19262 | 30121 ft | 500 kts | 338° |
| 2026-04-20 18:48 | -26.50261 | 153.18092 | 30529 ft | 500 kts | 338° |
| 2026-04-20 18:48 | -26.46939 | 153.16939 | 30927 ft | 500 kts | 339° |
| 2026-04-20 18:48 | -26.43618 | 153.15798 | 31398 ft | 497 kts | 339° |
| 2026-04-20 18:49 | -26.40323 | 153.14670 | 31933 ft | 493 kts | 339° |
| 2026-04-20 18:49 | -26.37056 | 153.13549 | 32449 ft | 490 kts | 338° |
| 2026-04-20 18:49 | -26.33807 | 153.12433 | 32887 ft | 488 kts | 338° |
| 2026-04-20 18:49 | -26.30566 | 153.11303 | 33266 ft | 487 kts | 336° |
| 2026-04-20 18:50 | -26.27425 | 153.09822 | 33647 ft | 480 kts | 327° |
| 2026-04-20 18:50 | -26.24621 | 153.07896 | 34150 ft | 468 kts | 318° |
| 2026-04-20 18:50 | -26.22075 | 153.05767 | 34703 ft | 460 kts | 317° |
| 2026-04-20 18:50 | -26.19531 | 153.03616 | 35048 ft | 459 kts | 317° |
| 2026-04-20 18:51 | -26.16973 | 153.01472 | 35240 ft | 462 kts | 317° |
| 2026-04-20 18:51 | -26.14388 | 152.99340 | 35441 ft | 464 kts | 318° |
| 2026-04-20 18:51 | -26.11787 | 152.97218 | 35740 ft | 462 kts | 318° |
| 2026-04-20 18:51 | -26.09236 | 152.95149 | 36071 ft | 461 kts | 318° |
| 2026-04-20 18:52 | -26.06642 | 152.93064 | 36369 ft | 460 kts | 318° |
| 2026-04-20 18:52 | -26.04047 | 152.90985 | 36618 ft | 460 kts | 318° |
| 2026-04-20 18:52 | -26.01453 | 152.88908 | 36859 ft | 460 kts | 318° |
| 2026-04-20 18:52 | -25.98863 | 152.86836 | 37135 ft | 459 kts | 318° |
| 2026-04-20 18:53 | -25.96273 | 152.84763 | 37429 ft | 457 kts | 318° |
| 2026-04-20 18:53 | -25.93694 | 152.82697 | 37660 ft | 457 kts | 318° |
| 2026-04-20 18:53 | -25.91120 | 152.80636 | 37921 ft | 455 kts | 318° |
| 2026-04-20 18:53 | -25.88557 | 152.78584 | 38205 ft | 454 kts | 318° |
| 2026-04-20 18:54 | -25.83469 | 152.74512 | 38182 ft | 456 kts | 318° |
| 2026-04-20 18:54 | -25.78338 | 152.70413 | 38186 ft | 453 kts | 318° |
| 2026-04-20 18:55 | -25.73238 | 152.66343 | 38179 ft | 450 kts | 318° |
| 2026-04-20 18:55 | -25.68169 | 152.62301 | 38183 ft | 448 kts | 318° |
| 2026-04-20 18:56 | -25.63115 | 152.58274 | 38187 ft | 447 kts | 318° |
| 2026-04-20 18:56 | -25.58060 | 152.54251 | 38176 ft | 447 kts | 318° |
| 2026-04-20 18:57 | -25.52996 | 152.50225 | 38177 ft | 448 kts | 318° |
| 2026-04-20 18:57 | -25.47921 | 152.46195 | 38185 ft | 450 kts | 318° |
| 2026-04-20 18:58 | -25.42826 | 152.42153 | 38185 ft | 451 kts | 318° |
| 2026-04-20 18:58 | -25.37709 | 152.38098 | 38183 ft | 453 kts | 319° |
| 2026-04-20 18:59 | -25.32576 | 152.34037 | 38186 ft | 455 kts | 319° |
| 2026-04-20 18:59 | -25.27425 | 152.29970 | 38178 ft | 455 kts | 319° |
| 2026-04-20 19:00 | -25.22273 | 152.25902 | 38180 ft | 455 kts | 319° |
| 2026-04-20 19:00 | -25.17123 | 152.21838 | 38177 ft | 454 kts | 319° |
| 2026-04-20 19:01 | -25.11993 | 152.17787 | 38184 ft | 453 kts | 319° |
| 2026-04-20 19:01 | -25.06900 | 152.13777 | 38183 ft | 452 kts | 319° |
| 2026-04-20 19:02 | -25.01754 | 152.09732 | 38184 ft | 451 kts | 319° |
| 2026-04-20 19:02 | -24.96647 | 152.05732 | 38186 ft | 450 kts | 319° |
| 2026-04-20 19:03 | -24.91549 | 152.01745 | 38182 ft | 449 kts | 319° |
| 2026-04-20 19:03 | -24.86456 | 151.97763 | 38185 ft | 449 kts | 319° |
| 2026-04-20 19:04 | -24.81463 | 151.93863 | 38185 ft | 449 kts | 319° |
| 2026-04-20 19:04 | -24.76568 | 151.90042 | 38179 ft | 449 kts | 319° |
| 2026-04-20 19:05 | -24.71504 | 151.86093 | 38191 ft | 449 kts | 319° |
| 2026-04-20 19:05 | -24.66435 | 151.82145 | 38181 ft | 450 kts | 319° |
| 2026-04-20 19:06 | -24.61454 | 151.78269 | 38150 ft | 451 kts | 319° |
| 2026-04-20 19:06 | -24.56334 | 151.74290 | 38176 ft | 451 kts | 319° |
| 2026-04-20 19:07 | -24.51216 | 151.70316 | 38174 ft | 451 kts | 319° |
| 2026-04-20 19:07 | -24.46099 | 151.66346 | 38175 ft | 451 kts | 319° |
| 2026-04-20 19:08 | -24.38423 | 151.60399 | 38166 ft | 450 kts | 319° |
| 2026-04-20 19:09 | -24.33306 | 151.56440 | 38177 ft | 450 kts | 319° |
| 2026-04-20 19:09 | -24.28193 | 151.52487 | 38158 ft | 450 kts | 319° |
| 2026-04-20 19:10 | -24.23082 | 151.48541 | 38171 ft | 449 kts | 319° |
| 2026-04-20 19:10 | -24.17976 | 151.44601 | 38174 ft | 449 kts | 319° |
| 2026-04-20 19:11 | -24.12868 | 151.40664 | 38170 ft | 449 kts | 319° |
| 2026-04-20 19:11 | -24.07755 | 151.36728 | 38170 ft | 449 kts | 319° |
| 2026-04-20 19:12 | -24.02646 | 151.32798 | 38160 ft | 449 kts | 319° |
| 2026-04-20 19:12 | -23.97535 | 151.28870 | 38169 ft | 449 kts | 319° |
| 2026-04-20 19:13 | -23.92426 | 151.24946 | 38178 ft | 447 kts | 319° |
| 2026-04-20 19:13 | -23.87331 | 151.21040 | 38161 ft | 447 kts | 319° |
| 2026-04-20 19:14 | -23.82064 | 151.17421 | 38162 ft | 450 kts | 323° |
| 2026-04-20 19:14 | -23.76636 | 151.13989 | 38162 ft | 450 kts | 324° |
| 2026-04-20 19:15 | -23.71218 | 151.10567 | 38148 ft | 450 kts | 323° |
| 2026-04-20 19:15 | -23.65821 | 151.07126 | 38162 ft | 449 kts | 323° |
| 2026-04-20 19:16 | -23.60439 | 151.03679 | 38146 ft | 448 kts | 323° |
| 2026-04-20 19:16 | -23.55070 | 151.00241 | 38152 ft | 447 kts | 323° |
| 2026-04-20 19:17 | -23.49709 | 150.96813 | 38158 ft | 446 kts | 323° |
| 2026-04-20 19:17 | -23.44349 | 150.93398 | 38158 ft | 446 kts | 323° |
| 2026-04-20 19:18 | -23.39014 | 150.89985 | 38155 ft | 446 kts | 323° |
| 2026-04-20 19:18 | -23.33668 | 150.86569 | 38155 ft | 446 kts | 323° |
| 2026-04-20 19:19 | -23.28318 | 150.83159 | 38149 ft | 445 kts | 323° |
| 2026-04-20 19:19 | -23.22978 | 150.79761 | 38145 ft | 445 kts | 323° |
| 2026-04-20 19:20 | -23.17642 | 150.76367 | 38145 ft | 444 kts | 323° |
| 2026-04-20 19:20 | -23.12310 | 150.72979 | 38143 ft | 444 kts | 322° |
| 2026-04-20 19:21 | -23.06976 | 150.69593 | 38157 ft | 444 kts | 323° |
| 2026-04-20 19:21 | -23.01679 | 150.66233 | 38150 ft | 445 kts | 323° |
| 2026-04-20 19:22 | -22.96336 | 150.62847 | 38146 ft | 444 kts | 322° |
| 2026-04-20 19:22 | -22.91003 | 150.59472 | 38149 ft | 443 kts | 322° |
| 2026-04-20 19:23 | -22.85666 | 150.56105 | 38144 ft | 444 kts | 322° |
| 2026-04-20 19:23 | -22.80331 | 150.52727 | 38142 ft | 444 kts | 322° |
| 2026-04-20 19:24 | -22.75000 | 150.49360 | 38150 ft | 443 kts | 322° |
| 2026-04-20 19:24 | -22.69673 | 150.45999 | 38129 ft | 443 kts | 322° |
| 2026-04-20 19:25 | -22.64346 | 150.42643 | 38114 ft | 442 kts | 321° |
| 2026-04-20 19:25 | -22.59041 | 150.39303 | 38146 ft | 441 kts | 321° |
| 2026-04-20 19:26 | -22.54630 | 150.36528 | 38154 ft | 441 kts | 321° |
| 2026-04-20 19:26 | -22.49330 | 150.33196 | 38145 ft | 441 kts | 321° |
| 2026-04-20 19:27 | -22.44028 | 150.29866 | 38143 ft | 441 kts | 321° |
| 2026-04-20 19:27 | -22.38753 | 150.26555 | 38145 ft | 441 kts | 321° |
| 2026-04-20 19:28 | -22.33423 | 150.23213 | 38112 ft | 441 kts | 321° |
| 2026-04-20 19:28 | -22.28124 | 150.19893 | 38132 ft | 440 kts | 321° |
| 2026-04-20 19:29 | -22.22858 | 150.16540 | 38115 ft | 438 kts | 320° |
| 2026-04-20 19:29 | -22.17660 | 150.13130 | 38132 ft | 437 kts | 319° |
| 2026-04-20 19:30 | -22.12469 | 150.09719 | 38138 ft | 437 kts | 319° |
| 2026-04-20 19:30 | -22.07271 | 150.06319 | 38143 ft | 437 kts | 320° |
| 2026-04-20 19:31 | -22.02069 | 150.02926 | 38139 ft | 437 kts | 320° |
| 2026-04-20 19:31 | -21.96868 | 149.99540 | 38131 ft | 436 kts | 319° |
| 2026-04-20 19:32 | -21.91670 | 149.96158 | 38132 ft | 436 kts | 319° |
| 2026-04-20 19:32 | -21.86472 | 149.92785 | 38132 ft | 436 kts | 319° |
| 2026-04-20 19:33 | -21.81279 | 149.89413 | 38150 ft | 436 kts | 319° |
| 2026-04-20 19:33 | -21.76063 | 149.86019 | 37569 ft | 443 kts | 319° |
| 2026-04-20 19:33 | -21.73432 | 149.84309 | 36993 ft | 441 kts | 319° |
| 2026-04-20 19:34 | -21.70807 | 149.82609 | 36365 ft | 440 kts | 319° |
| 2026-04-20 19:34 | -21.68221 | 149.80935 | 35680 ft | 440 kts | 320° |
| 2026-04-20 19:34 | -21.65561 | 149.79212 | 34928 ft | 442 kts | 320° |
| 2026-04-20 19:34 | -21.62953 | 149.77522 | 34150 ft | 445 kts | 320° |
| 2026-04-20 19:35 | -21.60298 | 149.75801 | 33235 ft | 447 kts | 321° |
| 2026-04-20 19:35 | -21.57630 | 149.74075 | 32431 ft | 448 kts | 321° |
| 2026-04-20 19:35 | -21.54975 | 149.72361 | 31857 ft | 443 kts | 322° |
| 2026-04-20 19:35 | -21.52345 | 149.70666 | 31258 ft | 439 kts | 322° |
| 2026-04-20 19:36 | -21.49737 | 149.68987 | 30680 ft | 435 kts | 322° |
| 2026-04-20 19:36 | -21.47150 | 149.67323 | 30061 ft | 433 kts | 323° |
| 2026-04-20 19:36 | -21.44581 | 149.65666 | 29390 ft | 429 kts | 323° |
| 2026-04-20 19:36 | -21.42029 | 149.64017 | 28753 ft | 426 kts | 323° |
| 2026-04-20 19:37 | -21.39501 | 149.62383 | 28141 ft | 423 kts | 323° |
| 2026-04-20 19:37 | -21.36988 | 149.60761 | 27539 ft | 420 kts | 323° |
| 2026-04-20 19:37 | -21.34490 | 149.59150 | 26926 ft | 418 kts | 323° |
| 2026-04-20 19:37 | -21.31998 | 149.57543 | 26346 ft | 418 kts | 323° |
| 2026-04-20 19:38 | -21.29504 | 149.55935 | 25738 ft | 418 kts | 323° |
| 2026-04-20 19:38 | -21.27003 | 149.54323 | 25124 ft | 420 kts | 324° |
| 2026-04-20 19:38 | -21.24498 | 149.52710 | 24517 ft | 421 kts | 324° |
| 2026-04-20 19:38 | -21.21947 | 149.51068 | 23891 ft | 423 kts | 324° |
| 2026-04-20 19:39 | -21.19453 | 149.49464 | 23194 ft | 425 kts | 324° |
| 2026-04-20 19:39 | -21.16920 | 149.47837 | 22550 ft | 424 kts | 325° |
| 2026-04-20 19:39 | -21.14394 | 149.46214 | 21926 ft | 423 kts | 325° |
| 2026-04-20 19:39 | -21.11876 | 149.44598 | 21312 ft | 420 kts | 326° |
| 2026-04-20 19:40 | -21.09386 | 149.43002 | 20711 ft | 414 kts | 326° |
| 2026-04-20 19:40 | -21.06930 | 149.41428 | 20114 ft | 409 kts | 326° |
| 2026-04-20 19:40 | -21.04499 | 149.39870 | 19539 ft | 404 kts | 326° |
| 2026-04-20 19:40 | -21.02096 | 149.38329 | 18945 ft | 400 kts | 327° |
| 2026-04-20 19:41 | -20.99721 | 149.36807 | 18374 ft | 396 kts | 327° |
| 2026-04-20 19:41 | -20.97368 | 149.35300 | 17724 ft | 392 kts | 327° |
| 2026-04-20 19:41 | -20.95041 | 149.33809 | 17134 ft | 388 kts | 327° |
| 2026-04-20 19:41 | -20.92740 | 149.32336 | 16553 ft | 384 kts | 327° |
| 2026-04-20 19:42 | -20.90458 | 149.30875 | 15957 ft | 381 kts | 327° |
| 2026-04-20 19:42 | -20.88192 | 149.29425 | 15360 ft | 379 kts | 328° |
| 2026-04-20 19:42 | -20.85933 | 149.27981 | 14790 ft | 377 kts | 327° |
| 2026-04-20 19:42 | -20.83693 | 149.26549 | 14234 ft | 375 kts | 327° |
| 2026-04-20 19:43 | -20.81461 | 149.25122 | 13632 ft | 373 kts | 328° |
| 2026-04-20 19:43 | -20.79242 | 149.23703 | 13049 ft | 370 kts | 328° |
| 2026-04-20 19:43 | -20.77044 | 149.22299 | 12495 ft | 366 kts | 328° |
| 2026-04-20 19:43 | -20.74866 | 149.20909 | 11951 ft | 363 kts | 328° |
| 2026-04-20 19:44 | -20.72709 | 149.19532 | 11416 ft | 360 kts | 328° |
| 2026-04-20 19:44 | -20.70570 | 149.18167 | 10893 ft | 356 kts | 329° |
| 2026-04-20 19:44 | -20.68465 | 149.16826 | 10600 ft | 346 kts | 329° |
| 2026-04-20 19:44 | -20.66450 | 149.15542 | 10361 ft | 336 kts | 329° |
| 2026-04-20 19:45 | -20.64453 | 149.14268 | 10204 ft | 324 kts | 329° |
| 2026-04-20 19:45 | -20.62576 | 149.13072 | 10059 ft | 313 kts | 329° |
| 2026-04-20 19:45 | -20.60745 | 149.11905 | 9961 ft | 300 kts | 329° |
| 2026-04-20 19:45 | -20.58941 | 149.10756 | 9434 ft | 303 kts | 329° |
| 2026-04-20 19:46 | -20.57143 | 149.09611 | 9080 ft | 300 kts | 329° |
| 2026-04-20 19:46 | -20.55366 | 149.08480 | 8768 ft | 296 kts | 330° |
| 2026-04-20 19:46 | -20.53600 | 149.07356 | 8413 ft | 294 kts | 330° |
| 2026-04-20 19:46 | -20.51846 | 149.06240 | 8082 ft | 292 kts | 330° |
| 2026-04-20 19:47 | -20.50105 | 149.05131 | 7746 ft | 292 kts | 330° |
| 2026-04-20 19:47 | -20.48377 | 149.04031 | 7442 ft | 285 kts | 330° |
| 2026-04-20 19:47 | -20.46700 | 149.02966 | 7100 ft | 275 kts | 331° |
| 2026-04-20 19:47 | -20.45086 | 149.01941 | 6790 ft | 265 kts | 331° |
| 2026-04-20 19:48 | -20.43531 | 149.00952 | 6459 ft | 256 kts | 331° |
| 2026-04-20 19:48 | -20.42025 | 148.99995 | 6123 ft | 248 kts | 332° |
| 2026-04-20 19:48 | -20.40568 | 148.99070 | 5820 ft | 241 kts | 332° |
| 2026-04-20 19:48 | -20.39133 | 148.98159 | 5558 ft | 240 kts | 332° |
| 2026-04-20 19:49 | -20.37728 | 148.97268 | 5433 ft | 229 kts | 332° |
| 2026-04-20 19:49 | -20.36403 | 148.96425 | 5302 ft | 215 kts | 333° |
| 2026-04-20 19:49 | -20.35091 | 148.95783 | 5199 ft | 202 kts | 0° |
| 2026-04-20 19:49 | -20.33752 | 148.95901 | 5152 ft | 190 kts | 20° |
| 2026-04-20 19:50 | -20.32457 | 148.96219 | 5071 ft | 192 kts | 21° |
| 2026-04-20 19:50 | -20.31150 | 148.96552 | 4970 ft | 195 kts | 21° |
| 2026-04-20 19:50 | -20.29802 | 148.96894 | 4745 ft | 200 kts | 21° |
| 2026-04-20 19:50 | -20.28476 | 148.97218 | 4515 ft | 189 kts | 20° |
| 2026-04-20 19:51 | -20.27213 | 148.97530 | 4356 ft | 185 kts | 18° |
| 2026-04-20 19:51 | -20.25911 | 148.97688 | 4192 ft | 196 kts | 1° |
| 2026-04-20 19:51 | -20.24549 | 148.97324 | 3947 ft | 209 kts | 337° |
| 2026-04-20 19:51 | -20.23362 | 148.96431 | 3735 ft | 208 kts | 315° |
| 2026-04-20 19:52 | -20.22567 | 148.95188 | 3476 ft | 198 kts | 293° |
| 2026-04-20 19:52 | -20.22177 | 148.93842 | 3260 ft | 182 kts | 273° |
| 2026-04-20 19:52 | -20.22201 | 148.92557 | 3064 ft | 167 kts | 253° |
| 2026-04-20 19:52 | -20.22557 | 148.91427 | 2895 ft | 161 kts | 237° |
| 2026-04-20 19:53 | -20.23144 | 148.90459 | 2701 ft | 149 kts | 224° |
| 2026-04-20 19:53 | -20.23862 | 148.89706 | 2493 ft | 142 kts | 212° |
| 2026-04-20 19:53 | -20.24696 | 148.89165 | 2340 ft | 140 kts | 196° |
| 2026-04-20 19:53 | -20.25626 | 148.88861 | 2183 ft | 140 kts | 183° |
| 2026-04-20 19:54 | -20.26591 | 148.88792 | 2001 ft | 139 kts | 172° |
| 2026-04-20 19:54 | -20.27525 | 148.88954 | 1813 ft | 134 kts | 160° |
| 2026-04-20 19:54 | -20.28370 | 148.89314 | 1609 ft | 130 kts | 148° |
| 2026-04-20 19:54 | -20.29109 | 148.89833 | 1455 ft | 125 kts | 140° |
| 2026-04-20 19:55 | -20.29801 | 148.90394 | 1250 ft | 128 kts | 138° |
| 2026-04-20 19:55 | -20.30521 | 148.90983 | 1125 ft | 133 kts | 139° |
| 2026-04-20 19:55 | -20.31247 | 148.91578 | 927 ft | 129 kts | 140° |
| 2026-04-20 19:55 | -20.31971 | 148.92167 | 776 ft | 133 kts | 141° |
| 2026-04-20 19:56 | -20.32455 | 148.92555 | 674 ft | 131 kts | 142° |
| 2026-04-20 19:56 | -20.33419 | 148.93310 | 432 ft | 129 kts | 139° |
| 2026-04-20 19:56 | -20.34165 | 148.93899 | 295 ft | 134 kts | 140° |
| 2026-04-20 19:56 | -20.34905 | 148.94487 | 107 ft | 130 kts | 141° |
| 2026-04-20 19:57 | -20.35602 | 148.95047 | 24 ft | 116 kts | 143° |
| 2026-04-20 19:57 | -20.35999 | 148.95366 | 19 ft | 44 kts | 143° |
| 2026-04-20 19:57 | -20.36217 | 148.95542 | 21 ft | 26 kts | 143° |
| 2026-04-20 19:57 | -20.36327 | 148.95629 | 23 ft | 14 kts | 150° |
| 2026-04-20 19:58 | -20.36404 | 148.95642 | 22 ft | 10 kts | 144° |
| 2026-04-20 19:58 | -20.36384 | 148.95675 | 21 ft | 6 kts | 343° |
| 2026-04-20 19:58 | -20.36337 | 148.95638 | 22 ft | 12 kts | 323° |
| 2026-04-20 19:58 | -20.36245 | 148.95565 | 20 ft | 22 kts | 323° |
| 2026-04-20 19:59 | -20.36110 | 148.95456 | 20 ft | 25 kts | 323° |
| 2026-04-20 19:59 | -20.35974 | 148.95347 | 19 ft | 24 kts | 323° |
| 2026-04-20 19:59 | -20.35837 | 148.95237 | 22 ft | 25 kts | 323° |
| 2026-04-20 19:59 | -20.35699 | 148.95126 | 22 ft | 24 kts | 322° |
| 2026-04-20 20:00 | -20.35570 | 148.95022 | 23 ft | 23 kts | 323° |
| 2026-04-20 20:00 | -20.35459 | 148.94934 | 21 ft | 12 kts | 325° |
| 2026-04-20 20:00 | -20.35395 | 148.94955 | 20 ft | 11 kts | 54° |
| 2026-04-20 20:00 | -20.35344 | 148.95002 | 19 ft | 8 kts | 4° |
| 2026-04-20 20:01 | -20.35299 | 148.94976 | 19 ft | 8 kts | 322° |
| 2026-04-20 20:01 | -20.35270 | 148.94960 | 19 ft | 0 kts | 344° |
| 2026-04-20 20:01 | -20.35266 | 148.94959 | 19 ft | 2 kts | 346° |
| 2026-04-20 20:01 | -20.35246 | 148.94962 | 19 ft | 4 kts | 28° |
| 2026-04-20 20:02 | -20.35244 | 148.94985 | 19 ft | 3 kts | 126° |
| 2026-04-20 20:02 | -20.35256 | 148.94993 | 19 ft | 2 kts | 143° |
| 2026-04-20 20:02 | -20.35257 | 148.94994 | 19 ft | 0 kts | 143° |